createdAt,value
2023-01-15T00:02:22.840Z,0.10
2023-01-15T00:04:51.740Z,0.10
2023-01-15T00:07:18.485Z,0.00
2023-01-15T00:09:45.224Z,0.10
2023-01-15T00:12:12.003Z,0.20
2023-01-15T00:14:58.369Z,0.03
2023-01-15T00:17:25.400Z,0.00
2023-01-15T00:19:52.255Z,0.10
2023-01-15T00:22:19.015Z,0.10
2023-01-15T00:25:04.435Z,0.10
2023-01-15T00:27:40.733Z,0.10
2023-01-15T00:30:32.261Z,0.23
2023-01-15T00:32:59.891Z,0.10
2023-01-15T00:35:26.685Z,0.10
2023-01-15T00:37:53.930Z,0.53
2023-01-15T00:40:21.116Z,0.40
2023-01-15T00:42:54.452Z,0.50
2023-01-15T00:45:22.495Z,0.30
2023-01-15T00:47:50.641Z,0.30
2023-01-15T00:50:17.604Z,0.47
2023-01-15T00:52:44.503Z,0.40
2023-01-15T00:55:12.478Z,0.27
2023-01-15T00:57:39.293Z,0.30
2023-01-15T01:00:06.729Z,0.53
2023-01-15T01:02:33.661Z,1.93
2023-01-15T01:05:00.655Z,0.63
2023-01-15T01:07:27.536Z,0.60
2023-01-15T01:09:54.284Z,0.40
2023-01-15T01:12:21.490Z,0.30
2023-01-15T01:14:48.292Z,0.50
2023-01-15T01:17:15.311Z,0.63
2023-01-15T01:19:42.245Z,0.53
2023-01-15T01:22:27.880Z,0.70
2023-01-15T01:24:54.736Z,0.70
2023-01-15T01:27:22.871Z,0.40
2023-01-15T01:29:49.623Z,0.40
2023-01-15T01:32:35.046Z,0.60
2023-01-15T01:35:01.834Z,0.43
2023-01-15T01:37:28.635Z,0.63
2023-01-15T01:39:56.676Z,0.50
2023-01-15T01:42:24.120Z,1.10
2023-01-15T01:44:50.825Z,0.40
2023-01-15T01:47:25.424Z,0.87
2023-01-15T01:50:00.568Z,1.30
2023-01-15T01:52:41.577Z,0.90
2023-01-15T01:55:09.584Z,0.87
2023-01-15T01:57:38.661Z,0.57
2023-01-15T02:00:07.034Z,1.20
2023-01-15T02:02:42.456Z,0.87
2023-01-15T02:05:11.599Z,0.70
2023-01-15T02:07:38.422Z,0.80
2023-01-15T02:10:05.700Z,1.30
2023-01-15T02:12:37.104Z,1.07
2023-01-15T02:15:13.846Z,0.83
2023-01-15T02:18:01.213Z,0.87
2023-01-15T02:20:42.604Z,0.73
2023-01-15T02:23:34.169Z,0.97
2023-01-15T02:26:27.231Z,0.93
2023-01-15T02:28:57.218Z,0.63
2023-01-15T02:31:36.240Z,1.10
2023-01-15T02:34:48.457Z,1.03
2023-01-15T02:37:21.786Z,1.10
2023-01-15T02:39:51.608Z,0.70
2023-01-15T02:42:21.375Z,0.90
2023-01-15T02:44:53.173Z,1.50
2023-01-15T02:47:33.238Z,1.10
2023-01-15T02:50:05.204Z,1.50
2023-01-15T02:52:44.837Z,1.30
2023-01-15T02:55:21.600Z,1.43
2023-01-15T02:57:53.367Z,2.00
2023-01-15T03:00:24.516Z,1.30
2023-01-15T03:03:25.137Z,1.20
2023-01-15T03:06:05.876Z,1.33
2023-01-15T03:08:32.832Z,1.70
2023-01-15T03:11:08.369Z,1.27
2023-01-15T03:14:06.983Z,0.87
2023-01-15T03:16:40.272Z,1.50
2023-01-15T03:19:29.281Z,1.37
2023-01-15T03:22:25.706Z,1.20
2023-01-15T03:25:01.041Z,1.37
2023-01-15T03:27:31.916Z,1.07
2023-01-15T03:30:03.161Z,1.00
2023-01-15T03:32:31.416Z,1.73
2023-01-15T03:34:58.602Z,1.70
2023-01-15T03:37:27.973Z,1.23
2023-01-15T03:39:58.189Z,1.10
2023-01-15T03:42:46.961Z,0.90
2023-01-15T03:45:26.226Z,1.00
2023-01-15T03:47:56.344Z,1.57
2023-01-15T03:50:36.090Z,1.70
2023-01-15T03:53:10.282Z,1.70
2023-01-15T03:56:23.420Z,1.03
2023-01-15T03:58:59.870Z,2.37
2023-01-15T04:01:42.875Z,1.80
2023-01-15T04:04:13.187Z,0.80
2023-01-15T04:06:41.512Z,1.93
2023-01-15T04:09:11.154Z,1.03
2023-01-15T04:11:38.365Z,1.30
2023-01-15T04:14:07.024Z,1.07
2023-01-15T04:16:44.181Z,1.17
2023-01-15T04:19:12.622Z,1.20
2023-01-15T04:21:47.663Z,1.30
2023-01-15T04:24:14.503Z,1.60
2023-01-15T04:26:41.326Z,1.80
2023-01-15T04:29:08.177Z,1.80
2023-01-15T04:31:36.247Z,1.50
2023-01-15T04:34:04.235Z,1.70
2023-01-15T04:36:31.070Z,1.57
2023-01-15T04:38:59.927Z,1.10
2023-01-15T04:41:45.271Z,1.53
2023-01-15T04:44:12.116Z,1.80
2023-01-15T04:46:44.861Z,1.20
2023-01-15T04:52:02.074Z,1.00
2023-01-15T04:54:28.887Z,1.73
2023-01-15T04:56:55.842Z,1.27
2023-01-15T04:59:25.070Z,1.30
2023-01-15T05:02:03.115Z,1.30
2023-01-15T05:04:33.750Z,1.10
2023-01-15T05:07:03.739Z,1.60
2023-01-15T05:09:30.956Z,2.37
2023-01-15T05:11:57.774Z,1.10
2023-01-15T05:14:24.588Z,1.10
2023-01-15T05:16:51.357Z,1.30
2023-01-15T05:19:18.167Z,1.33
2023-01-15T05:21:45.475Z,1.13
2023-01-15T05:24:30.584Z,1.00
2023-01-15T05:26:58.371Z,1.30
2023-01-15T05:29:43.889Z,1.53
2023-01-15T05:32:10.655Z,1.67
2023-01-15T05:34:37.414Z,1.00
2023-01-15T05:37:04.181Z,1.53
2023-01-15T05:39:30.903Z,1.40
2023-01-15T05:44:41.773Z,1.57
2023-01-15T05:47:10.788Z,1.13
2023-01-15T05:49:37.896Z,1.93
2023-01-15T05:52:04.929Z,1.93
2023-01-15T05:54:36.001Z,1.63
2023-01-15T05:57:03.666Z,1.87
2023-01-15T05:59:32.141Z,1.13
2023-01-15T06:01:59.243Z,0.97
2023-01-15T06:04:26.681Z,1.70
2023-01-15T06:06:55.665Z,1.13
2023-01-15T06:09:23.547Z,1.43
2023-01-15T06:11:51.154Z,1.63
2023-01-15T06:14:18.074Z,1.03
2023-01-15T06:17:03.299Z,1.17
2023-01-15T06:19:30.218Z,1.50
2023-01-15T06:21:57.023Z,1.50
2023-01-15T06:24:23.809Z,1.30
2023-01-15T06:26:50.558Z,1.10
2023-01-15T06:29:36.115Z,1.27
2023-01-15T06:32:02.843Z,1.40
2023-01-15T06:34:29.635Z,1.47
2023-01-15T06:36:56.356Z,0.70
2023-01-15T06:39:23.140Z,0.97
2023-01-15T06:42:08.460Z,1.00
2023-01-15T06:44:53.893Z,0.93
2023-01-15T06:47:22.684Z,1.27
2023-01-15T06:49:55.728Z,1.27
2023-01-15T06:52:24.477Z,1.03
2023-01-15T06:54:51.559Z,1.13
2023-01-15T06:57:21.425Z,1.37
2023-01-15T06:59:48.994Z,1.20
2023-01-15T07:02:18.000Z,1.07
2023-01-15T07:04:45.179Z,0.77
2023-01-15T07:07:11.918Z,1.43
2023-01-15T07:09:38.661Z,0.90
2023-01-15T07:12:05.561Z,0.83
2023-01-15T07:14:33.236Z,0.83
2023-01-15T07:17:00.045Z,1.03
2023-01-15T07:19:27.753Z,0.60
2023-01-15T07:21:55.202Z,0.50
2023-01-15T07:24:22.001Z,0.73
2023-01-15T07:29:33.180Z,0.67
2023-01-15T07:32:00.093Z,0.90
2023-01-15T07:34:26.940Z,0.90
2023-01-15T07:36:53.692Z,1.20
2023-01-15T07:39:20.644Z,1.50
2023-01-15T07:42:05.862Z,0.80
2023-01-15T07:44:53.365Z,0.87
2023-01-15T07:47:40.701Z,1.30
2023-01-15T07:50:11.698Z,1.07
2023-01-15T07:52:38.538Z,0.80
2023-01-15T07:55:06.022Z,1.23
2023-01-15T07:57:32.842Z,1.53
2023-01-15T07:59:59.847Z,0.73
2023-01-15T08:02:27.487Z,1.17
2023-01-15T08:04:54.293Z,0.80
2023-01-15T08:07:21.018Z,1.10
2023-01-15T08:09:47.749Z,1.00
2023-01-15T08:12:33.011Z,1.27
2023-01-15T08:15:14.865Z,1.03
2023-01-15T08:17:43.784Z,0.60
2023-01-15T08:20:13.943Z,1.20
2023-01-15T08:22:41.184Z,1.17
2023-01-15T08:25:12.755Z,1.00
2023-01-15T08:27:40.700Z,1.07
2023-01-15T08:30:11.664Z,0.63
2023-01-15T08:33:03.302Z,1.00
2023-01-15T08:36:08.878Z,0.60
2023-01-15T08:38:35.690Z,0.70
2023-01-15T08:41:03.860Z,0.87
2023-01-15T08:43:35.771Z,1.53
2023-01-15T08:46:04.925Z,0.60
2023-01-15T08:48:33.238Z,0.70
2023-01-15T08:51:05.164Z,0.70
2023-01-15T08:53:32.198Z,1.07
2023-01-15T08:55:58.952Z,0.60
2023-01-15T08:58:29.859Z,0.60
2023-01-15T09:00:56.852Z,0.87
2023-01-15T09:03:23.623Z,0.70
2023-01-15T09:05:50.350Z,0.50
2023-01-15T09:08:18.046Z,0.50
2023-01-15T09:10:45.920Z,0.40
2023-01-15T09:13:12.683Z,0.70
2023-01-15T09:15:39.403Z,0.40
2023-01-15T09:18:06.409Z,0.57
2023-01-15T09:20:34.154Z,0.50
2023-01-15T09:23:01.041Z,0.53
2023-01-15T09:25:27.783Z,0.87
2023-01-15T09:27:57.451Z,0.63
2023-01-15T09:30:24.323Z,0.80
2023-01-15T09:32:51.120Z,0.50
2023-01-15T09:35:17.958Z,0.40
2023-01-15T09:37:44.837Z,0.50
2023-01-15T09:40:32.275Z,0.50
2023-01-15T09:43:06.442Z,0.70
2023-01-15T09:45:42.033Z,0.60
2023-01-15T09:48:29.189Z,0.50
2023-01-15T09:51:17.551Z,0.40
2023-01-15T09:53:54.621Z,0.40
2023-01-15T09:56:25.073Z,0.43
2023-01-15T09:58:52.624Z,0.40
2023-01-15T10:01:31.561Z,0.40
2023-01-15T10:04:36.090Z,0.57
2023-01-15T10:07:22.972Z,1.23
2023-01-15T10:09:58.241Z,0.70
2023-01-15T10:12:37.239Z,0.60
2023-01-15T10:15:21.156Z,0.50
2023-01-15T10:17:53.885Z,0.73
2023-01-15T10:20:45.068Z,0.40
2023-01-15T10:23:17.445Z,0.70
2023-01-15T10:25:50.049Z,0.50
2023-01-15T10:28:30.683Z,1.30
2023-01-15T10:31:07.377Z,0.53
2023-01-15T10:33:55.814Z,1.10
2023-01-15T10:36:30.550Z,1.30
2023-01-15T10:39:23.406Z,0.30
2023-01-15T10:42:09.695Z,0.40
2023-01-15T10:45:01.280Z,0.40
2023-01-15T10:47:36.166Z,0.37
2023-01-15T10:50:13.102Z,0.37
2023-01-15T10:52:44.948Z,0.67
2023-01-15T10:55:18.901Z,0.60
2023-01-15T10:58:11.067Z,0.50
2023-01-15T11:00:39.930Z,0.33
2023-01-15T11:03:19.684Z,0.33
2023-01-15T11:05:47.135Z,0.50
2023-01-15T11:09:07.286Z,0.40
2023-01-15T11:11:22.153Z,0.90
2023-01-15T11:14:14.851Z,0.33
2023-01-15T11:17:02.170Z,0.30
2023-01-15T11:19:40.475Z,0.40
2023-01-15T11:22:14.812Z,0.30
2023-01-15T11:24:54.819Z,0.20
2023-01-15T11:27:25.589Z,0.23
2023-01-15T11:29:58.003Z,0.40
2023-01-15T11:35:19.021Z,0.40
2023-01-15T11:37:45.882Z,0.50
2023-01-15T11:40:18.410Z,0.30
2023-01-15T11:43:08.942Z,0.10
2023-01-15T11:46:07.737Z,0.20
2023-01-15T11:49:02.045Z,0.30
2023-01-15T11:51:31.063Z,1.00
2023-01-15T11:56:49.567Z,0.30
2023-01-15T11:59:20.047Z,0.30
2023-01-15T12:02:31.097Z,0.30
2023-01-15T12:05:02.059Z,0.30
2023-01-15T12:07:29.568Z,0.40
2023-01-15T12:10:01.842Z,0.20
2023-01-15T12:12:59.253Z,0.30
2023-01-15T12:15:55.101Z,0.20
2023-01-15T12:18:24.500Z,0.20
2023-01-15T12:21:15.667Z,0.30
2023-01-15T12:24:01.676Z,0.20
2023-01-15T12:26:42.465Z,0.40
2023-01-15T12:29:19.123Z,0.10
2023-01-15T12:35:18.926Z,0.20
2023-01-15T12:38:51.767Z,0.10
2023-01-15T12:41:48.588Z,0.20
2023-01-15T12:44:38.585Z,0.10
2023-01-15T12:47:10.619Z,0.20
2023-01-15T12:49:46.282Z,0.13
2023-01-15T12:52:39.064Z,0.10
2023-01-15T12:55:27.042Z,0.10
2023-01-15T12:57:59.349Z,0.20
2023-01-15T13:00:31.366Z,0.20
2023-01-15T13:03:03.355Z,0.10
2023-01-15T13:05:50.103Z,0.20
2023-01-15T13:08:28.229Z,0.20
2023-01-15T13:10:55.267Z,0.30
2023-01-15T13:13:29.553Z,0.17
2023-01-15T13:16:02.429Z,0.40
2023-01-15T13:18:38.181Z,0.20
2023-01-15T13:21:13.023Z,0.33
2023-01-15T13:24:07.505Z,0.20
2023-01-15T13:27:14.321Z,0.30
2023-01-15T13:29:46.791Z,0.30
2023-01-15T13:32:20.199Z,0.20
2023-01-15T13:34:59.154Z,0.10
2023-01-15T13:37:29.593Z,0.20
2023-01-15T13:40:27.620Z,0.30
2023-01-15T13:42:55.901Z,0.80
2023-01-15T13:45:27.827Z,0.10
2023-01-15T13:48:24.119Z,0.60
2023-01-15T13:50:57.812Z,0.20
2023-01-15T13:53:32.483Z,0.37
2023-01-15T13:56:07.836Z,0.37
2023-01-15T14:01:32.036Z,0.20
2023-01-15T14:04:03.964Z,0.30
2023-01-15T14:06:47.268Z,0.43
2023-01-15T14:09:22.979Z,0.70
2023-01-15T14:12:07.000Z,0.50
2023-01-15T14:14:58.788Z,0.47
2023-01-15T14:17:49.664Z,0.50
2023-01-15T14:20:53.744Z,0.30
2023-01-15T14:23:45.213Z,0.60
2023-01-15T14:26:26.435Z,0.30
2023-01-15T14:28:53.148Z,0.30
2023-01-15T14:31:20.049Z,0.30
2023-01-15T14:34:04.828Z,0.20
2023-01-15T14:36:52.776Z,0.30
2023-01-15T14:39:41.661Z,0.40
2023-01-15T14:43:02.204Z,0.30
2023-01-15T14:45:36.186Z,0.53
2023-01-15T14:48:29.122Z,0.30
2023-01-15T14:51:22.795Z,0.20
2023-01-15T14:54:11.818Z,0.20
2023-01-15T14:56:44.775Z,0.70
2023-01-15T14:59:20.199Z,0.20
2023-01-15T15:01:56.075Z,0.20
2023-01-15T15:04:44.811Z,0.10
2023-01-15T15:07:14.351Z,0.30
2023-01-15T15:10:04.849Z,0.50
2023-01-15T15:13:06.343Z,0.90
2023-01-15T15:15:42.682Z,0.50
2023-01-15T15:18:31.130Z,1.23
2023-01-15T15:21:04.632Z,0.77
2023-01-15T15:23:39.891Z,0.40
2023-01-15T15:26:19.712Z,1.20
2023-01-15T15:29:17.478Z,0.60
2023-01-15T15:31:56.011Z,0.70
2023-01-15T15:34:40.296Z,0.70
2023-01-15T15:37:19.251Z,0.30
2023-01-15T15:40:15.563Z,0.43
2023-01-15T15:43:22.519Z,0.47
2023-01-15T15:46:12.714Z,0.20
2023-01-15T15:48:42.510Z,0.20
2023-01-15T15:51:30.737Z,0.33
2023-01-15T15:54:30.859Z,0.20
2023-01-15T15:56:57.691Z,0.30
2023-01-15T15:59:32.025Z,0.20
2023-01-15T16:02:18.202Z,0.50
2023-01-15T16:04:47.053Z,0.27
2023-01-15T16:07:34.195Z,0.30
2023-01-15T16:10:25.226Z,0.50
2023-01-15T16:12:58.897Z,0.50
2023-01-15T16:15:31.632Z,0.40
2023-01-15T16:18:00.497Z,0.30
2023-01-15T16:20:27.928Z,0.40
2023-01-15T16:23:28.185Z,0.37
2023-01-15T16:26:03.370Z,0.30
2023-01-15T16:28:43.830Z,0.43
2023-01-15T16:31:12.373Z,0.20
2023-01-15T16:33:39.565Z,0.30
2023-01-15T16:36:08.027Z,0.47
2023-01-15T16:38:39.093Z,0.17
2023-01-15T16:41:06.538Z,0.13
2023-01-15T16:43:51.744Z,0.40
2023-01-15T16:49:29.786Z,0.40
2023-01-15T16:51:58.725Z,0.40
2023-01-15T16:54:31.658Z,0.20
2023-01-15T16:57:01.581Z,0.60
2023-01-15T16:59:47.527Z,0.40
2023-01-15T17:02:17.118Z,0.40
2023-01-15T17:04:45.550Z,0.13
2023-01-15T17:07:35.167Z,0.30
2023-01-15T17:10:04.222Z,0.30
2023-01-15T17:12:38.417Z,0.80
2023-01-15T17:15:36.155Z,0.63
2023-01-15T17:18:19.968Z,0.50
2023-01-15T17:20:46.968Z,0.57
2023-01-15T17:23:13.931Z,1.20
2023-01-15T17:25:40.741Z,0.80
2023-01-15T17:28:12.753Z,1.60
2023-01-15T17:30:39.834Z,0.40
2023-01-15T17:33:10.570Z,0.37
2023-01-15T17:35:38.988Z,0.20
2023-01-15T17:38:07.458Z,0.30
2023-01-15T17:40:34.301Z,0.30
2023-01-15T17:43:01.995Z,0.40
2023-01-15T17:45:31.696Z,0.90
2023-01-15T17:47:59.246Z,0.60
2023-01-15T17:50:26.290Z,0.60
2023-01-15T17:52:53.125Z,0.70
2023-01-15T17:55:41.003Z,0.40
2023-01-15T17:58:30.789Z,0.60
2023-01-15T18:01:16.095Z,0.30
2023-01-15T18:04:10.092Z,0.30
2023-01-15T18:06:37.695Z,1.63
2023-01-15T18:09:07.164Z,4.30
2023-01-15T18:11:33.965Z,1.13
2023-01-15T18:14:00.717Z,0.77
2023-01-15T18:16:28.306Z,0.20
2023-01-15T18:18:55.453Z,0.30
2023-01-15T18:21:41.248Z,0.40
2023-01-15T18:24:26.976Z,1.43
2023-01-15T18:26:53.787Z,0.40
2023-01-15T18:29:20.663Z,0.20
2023-01-15T18:31:47.540Z,0.77
2023-01-15T18:34:14.745Z,0.30
2023-01-15T18:36:41.799Z,0.40
2023-01-15T18:39:12.449Z,0.30
2023-01-15T18:41:40.241Z,0.30
2023-01-15T18:44:54.932Z,0.47
2023-01-15T18:47:22.602Z,0.30
2023-01-15T18:49:53.779Z,0.50
2023-01-15T18:52:39.798Z,1.00
2023-01-15T18:55:06.892Z,1.33
2023-01-15T18:57:34.186Z,0.73
2023-01-15T19:00:01.074Z,0.70
2023-01-15T19:02:27.894Z,0.73
2023-01-15T19:04:54.688Z,0.50
2023-01-15T19:07:21.733Z,0.90
2023-01-15T19:09:48.566Z,0.70
2023-01-15T19:12:17.055Z,0.50
2023-01-15T19:15:02.479Z,0.30
2023-01-15T19:17:47.840Z,1.23
2023-01-15T19:20:18.424Z,1.40
2023-01-15T19:23:05.060Z,1.13
2023-01-15T19:25:41.166Z,2.00
2023-01-15T19:28:10.279Z,1.77
2023-01-15T19:30:39.446Z,2.20
2023-01-15T19:33:07.526Z,1.40
2023-01-15T19:35:35.681Z,1.23
2023-01-15T19:38:03.207Z,1.20
2023-01-15T19:40:31.708Z,1.63
2023-01-15T19:43:16.985Z,1.00
2023-01-15T19:46:04.414Z,0.40
2023-01-15T19:48:51.993Z,0.63
2023-01-15T19:51:20.015Z,0.83
2023-01-15T19:53:46.753Z,0.50
2023-01-15T19:56:13.490Z,0.60
2023-01-15T19:58:40.381Z,0.30
2023-01-15T20:01:25.445Z,0.60
2023-01-15T20:03:52.258Z,2.47
2023-01-15T20:06:19.014Z,1.37
2023-01-15T20:08:45.759Z,2.90
2023-01-15T20:11:12.496Z,6.00
2023-01-15T20:13:53.383Z,15.40
2023-01-15T20:16:39.103Z,5.07
2023-01-15T20:19:05.945Z,6.33
2023-01-15T20:21:32.688Z,6.60
2023-01-15T20:23:59.524Z,1.97
2023-01-15T20:26:27.670Z,1.40
2023-01-15T20:28:54.577Z,1.07
2023-01-15T20:31:21.802Z,0.90
2023-01-15T20:33:48.741Z,0.40
2023-01-15T20:36:15.732Z,1.07
2023-01-15T20:38:42.514Z,2.33
2023-01-15T20:41:29.323Z,2.10
2023-01-15T20:44:14.654Z,2.67
2023-01-15T20:46:41.478Z,3.20
2023-01-15T20:49:28.311Z,3.57
2023-01-15T20:51:57.102Z,4.43
2023-01-15T20:54:26.070Z,5.03
2023-01-15T20:56:52.928Z,3.60
2023-01-15T20:59:19.768Z,2.00
2023-01-15T21:01:46.701Z,1.83
2023-01-15T21:04:13.823Z,1.70
2023-01-15T21:06:40.898Z,3.60
2023-01-15T21:09:07.891Z,6.03
2023-01-15T21:11:34.747Z,2.87
2023-01-15T21:14:01.614Z,1.97
2023-01-15T21:16:28.464Z,1.67
2023-01-15T21:18:55.229Z,1.97
2023-01-15T21:21:22.776Z,2.13
2023-01-15T21:23:50.337Z,1.87
2023-01-15T21:26:17.716Z,0.50
2023-01-15T21:28:44.843Z,0.50
2023-01-15T21:31:14.025Z,0.40
2023-01-15T21:33:41.101Z,0.40
2023-01-15T21:36:10.461Z,0.40
2023-01-15T21:38:37.466Z,0.20
2023-01-15T21:41:42.245Z,0.20
2023-01-15T21:44:33.697Z,0.63
2023-01-15T21:47:09.537Z,0.77
2023-01-15T21:49:36.434Z,0.47
2023-01-15T21:52:06.728Z,0.20
2023-01-15T21:54:34.244Z,1.10
2023-01-15T21:57:01.479Z,0.47
2023-01-15T21:59:46.885Z,0.87
2023-01-15T22:02:17.371Z,0.40
2023-01-15T22:04:44.251Z,0.60
2023-01-15T22:07:11.653Z,0.57
2023-01-15T22:09:38.894Z,0.50
2023-01-15T22:12:05.967Z,0.50
2023-01-15T22:14:33.649Z,0.40
2023-01-15T22:17:02.729Z,0.40
2023-01-15T22:19:31.159Z,0.40
2023-01-15T22:22:09.373Z,0.30
2023-01-15T22:24:54.587Z,0.73
2023-01-15T22:27:21.453Z,0.30
2023-01-15T22:29:48.169Z,0.40
2023-01-15T22:32:16.345Z,0.30
2023-01-15T22:34:43.827Z,0.50
2023-01-15T22:37:13.806Z,0.23
2023-01-15T22:39:40.640Z,0.40
2023-01-15T22:42:27.621Z,0.20
2023-01-15T22:44:56.915Z,0.53
2023-01-15T22:47:23.777Z,0.47
2023-01-15T22:49:50.877Z,0.50
2023-01-15T22:52:17.744Z,0.47
2023-01-15T22:54:45.369Z,0.30
2023-01-15T22:57:13.435Z,0.57
2023-01-15T22:59:40.316Z,0.63
2023-01-15T23:02:08.229Z,0.40
2023-01-15T23:04:35.246Z,0.30
2023-01-15T23:07:02.594Z,0.40
2023-01-15T23:09:29.525Z,0.47
2023-01-15T23:11:56.290Z,0.37
2023-01-15T23:14:23.135Z,0.43
2023-01-15T23:16:50.238Z,0.83
2023-01-15T23:19:17.933Z,0.40
2023-01-15T23:21:44.813Z,0.70
2023-01-15T23:24:12.314Z,0.40
2023-01-15T23:26:39.935Z,0.20
2023-01-15T23:29:07.459Z,0.40
2023-01-15T23:31:34.522Z,0.20
2023-01-15T23:34:01.314Z,0.40
2023-01-15T23:36:28.499Z,0.40
2023-01-15T23:38:55.317Z,0.20
2023-01-15T23:41:43.262Z,0.40
2023-01-15T23:44:34.022Z,0.50
2023-01-15T23:47:01.026Z,0.23
2023-01-15T23:49:27.777Z,0.20
2023-01-15T23:51:54.595Z,0.33
2023-01-15T23:54:21.387Z,0.30
2023-01-15T23:56:49.147Z,0.40
2023-01-15T23:59:15.950Z,0.30
